sensor_id;sensor_type;location;lat;lon;timestamp;P1;durP1;ratioP1;P2;durP2;ratioP2
1719;SDS011;857;52.872;9.692;2023-03-14T00:01:07;2.70;;;1.70;;
1719;SDS011;857;52.872;9.692;2023-03-14T00:03:36;4.47;;;1.87;;
1719;SDS011;857;52.872;9.692;2023-03-14T00:06:04;4.00;;;2.30;;
1719;SDS011;857;52.872;9.692;2023-03-14T00:08:32;2.00;;;1.70;;
1719;SDS011;857;52.872;9.692;2023-03-14T00:11:03;2.73;;;2.00;;
1719;SDS011;857;52.872;9.692;2023-03-14T00:13:31;2.50;;;1.50;;
1719;SDS011;857;52.872;9.692;2023-03-14T00:16:01;3.77;;;2.40;;
1719;SDS011;857;52.872;9.692;2023-03-14T00:18:29;4.33;;;2.10;;
1719;SDS011;857;52.872;9.692;2023-03-14T00:20:58;2.60;;;2.00;;
1719;SDS011;857;52.872;9.692;2023-03-14T00:23:26;2.67;;;2.40;;
1719;SDS011;857;52.872;9.692;2023-03-14T00:25:57;2.43;;;2.00;;
1719;SDS011;857;52.872;9.692;2023-03-14T00:28:26;6.40;;;2.47;;
1719;SDS011;857;52.872;9.692;2023-03-14T00:30:53;2.53;;;1.50;;
1719;SDS011;857;52.872;9.692;2023-03-14T00:33:21;3.30;;;1.97;;
1719;SDS011;857;52.872;9.692;2023-03-14T00:35:53;3.40;;;2.43;;
1719;SDS011;857;52.872;9.692;2023-03-14T00:38:22;7.73;;;2.00;;
1719;SDS011;857;52.872;9.692;2023-03-14T00:40:50;4.20;;;1.87;;
1719;SDS011;857;52.872;9.692;2023-03-14T00:43:18;4.20;;;2.10;;
1719;SDS011;857;52.872;9.692;2023-03-14T00:45:47;4.03;;;1.97;;
1719;SDS011;857;52.872;9.692;2023-03-14T00:48:15;5.57;;;2.20;;
1719;SDS011;857;52.872;9.692;2023-03-14T00:50:42;4.63;;;2.00;;
1719;SDS011;857;52.872;9.692;2023-03-14T00:53:10;3.23;;;1.87;;
1719;SDS011;857;52.872;9.692;2023-03-14T00:55:40;4.60;;;1.80;;
1719;SDS011;857;52.872;9.692;2023-03-14T00:58:08;2.80;;;2.10;;
1719;SDS011;857;52.872;9.692;2023-03-14T01:00:36;7.03;;;2.30;;
1719;SDS011;857;52.872;9.692;2023-03-14T01:03:04;4.07;;;1.90;;
1719;SDS011;857;52.872;9.692;2023-03-14T01:05:32;2.37;;;1.63;;
1719;SDS011;857;52.872;9.692;2023-03-14T01:08:00;3.03;;;2.00;;
1719;SDS011;857;52.872;9.692;2023-03-14T01:10:28;2.23;;;1.70;;
1719;SDS011;857;52.872;9.692;2023-03-14T01:12:58;2.40;;;1.90;;
1719;SDS011;857;52.872;9.692;2023-03-14T01:15:28;3.43;;;1.53;;
1719;SDS011;857;52.872;9.692;2023-03-14T01:17:55;3.53;;;1.90;;
1719;SDS011;857;52.872;9.692;2023-03-14T01:20:23;1.70;;;1.60;;
1719;SDS011;857;52.872;9.692;2023-03-14T01:22:52;4.47;;;1.90;;
1719;SDS011;857;52.872;9.692;2023-03-14T01:25:20;6.07;;;2.10;;
1719;SDS011;857;52.872;9.692;2023-03-14T01:27:48;3.30;;;2.10;;
1719;SDS011;857;52.872;9.692;2023-03-14T01:30:17;5.00;;;2.13;;
1719;SDS011;857;52.872;9.692;2023-03-14T01:32:44;1.60;;;1.50;;
1719;SDS011;857;52.872;9.692;2023-03-14T01:35:12;3.93;;;1.80;;
1719;SDS011;857;52.872;9.692;2023-03-14T01:37:40;3.90;;;2.03;;
1719;SDS011;857;52.872;9.692;2023-03-14T01:40:13;3.73;;;1.40;;
1719;SDS011;857;52.872;9.692;2023-03-14T01:42:44;2.97;;;1.70;;
1719;SDS011;857;52.872;9.692;2023-03-14T01:48:02;2.87;;;1.87;;
1719;SDS011;857;52.872;9.692;2023-03-14T01:50:30;4.27;;;2.00;;
1719;SDS011;857;52.872;9.692;2023-03-14T01:52:59;1.93;;;1.60;;
1719;SDS011;857;52.872;9.692;2023-03-14T01:55:27;2.47;;;1.57;;
1719;SDS011;857;52.872;9.692;2023-03-14T01:57:55;3.57;;;2.17;;
1719;SDS011;857;52.872;9.692;2023-03-14T02:00:24;5.23;;;2.20;;
1719;SDS011;857;52.872;9.692;2023-03-14T02:02:53;2.03;;;1.60;;
1719;SDS011;857;52.872;9.692;2023-03-14T02:05:25;3.00;;;1.50;;
1719;SDS011;857;52.872;9.692;2023-03-14T02:08:18;2.23;;;1.73;;
1719;SDS011;857;52.872;9.692;2023-03-14T02:10:51;5.00;;;1.70;;
1719;SDS011;857;52.872;9.692;2023-03-14T02:13:37;3.33;;;1.70;;
1719;SDS011;857;52.872;9.692;2023-03-14T02:16:34;1.77;;;1.67;;
1719;SDS011;857;52.872;9.692;2023-03-14T02:19:44;4.70;;;1.90;;
1719;SDS011;857;52.872;9.692;2023-03-14T02:22:32;1.50;;;1.40;;
1719;SDS011;857;52.872;9.692;2023-03-14T02:25:06;3.40;;;1.80;;
1719;SDS011;857;52.872;9.692;2023-03-14T02:27:37;4.47;;;1.70;;
1719;SDS011;857;52.872;9.692;2023-03-14T02:30:06;2.10;;;1.53;;
1719;SDS011;857;52.872;9.692;2023-03-14T02:32:36;2.60;;;1.20;;
1719;SDS011;857;52.872;9.692;2023-03-14T02:35:06;4.60;;;2.20;;
1719;SDS011;857;52.872;9.692;2023-03-14T02:37:37;2.50;;;2.00;;
1719;SDS011;857;52.872;9.692;2023-03-14T02:40:08;2.70;;;1.63;;
1719;SDS011;857;52.872;9.692;2023-03-14T02:42:39;3.10;;;1.70;;
1719;SDS011;857;52.872;9.692;2023-03-14T02:48:06;5.00;;;2.37;;
1719;SDS011;857;52.872;9.692;2023-03-14T02:50:37;4.13;;;1.97;;
1719;SDS011;857;52.872;9.692;2023-03-14T02:53:05;3.57;;;1.67;;
1719;SDS011;857;52.872;9.692;2023-03-14T02:55:33;3.90;;;1.80;;
1719;SDS011;857;52.872;9.692;2023-03-14T02:58:07;4.57;;;2.13;;
1719;SDS011;857;52.872;9.692;2023-03-14T03:00:35;4.53;;;1.90;;
1719;SDS011;857;52.872;9.692;2023-03-14T03:03:04;5.13;;;2.07;;
1719;SDS011;857;52.872;9.692;2023-03-14T03:05:32;5.60;;;2.00;;
1719;SDS011;857;52.872;9.692;2023-03-14T03:08:01;3.40;;;1.90;;
1719;SDS011;857;52.872;9.692;2023-03-14T03:10:29;5.60;;;1.70;;
1719;SDS011;857;52.872;9.692;2023-03-14T03:12:57;3.13;;;1.80;;
1719;SDS011;857;52.872;9.692;2023-03-14T03:15:27;3.47;;;2.20;;
1719;SDS011;857;52.872;9.692;2023-03-14T03:17:56;3.00;;;1.80;;
1719;SDS011;857;52.872;9.692;2023-03-14T03:20:24;3.53;;;1.93;;
1719;SDS011;857;52.872;9.692;2023-03-14T03:22:51;4.33;;;1.83;;
1719;SDS011;857;52.872;9.692;2023-03-14T03:25:19;4.00;;;1.97;;
1719;SDS011;857;52.872;9.692;2023-03-14T03:27:49;4.07;;;1.50;;
1719;SDS011;857;52.872;9.692;2023-03-14T03:30:17;2.33;;;1.70;;
1719;SDS011;857;52.872;9.692;2023-03-14T03:32:47;6.30;;;1.90;;
1719;SDS011;857;52.872;9.692;2023-03-14T03:35:15;5.07;;;1.53;;
1719;SDS011;857;52.872;9.692;2023-03-14T03:37:43;5.90;;;1.60;;
1719;SDS011;857;52.872;9.692;2023-03-14T03:40:10;6.20;;;1.90;;
1719;SDS011;857;52.872;9.692;2023-03-14T03:42:38;2.93;;;1.50;;
1719;SDS011;857;52.872;9.692;2023-03-14T03:45:09;4.03;;;1.80;;
1719;SDS011;857;52.872;9.692;2023-03-14T03:47:44;3.67;;;1.73;;
1719;SDS011;857;52.872;9.692;2023-03-14T03:50:13;2.80;;;1.50;;
1719;SDS011;857;52.872;9.692;2023-03-14T03:52:40;2.27;;;1.40;;
1719;SDS011;857;52.872;9.692;2023-03-14T03:55:08;5.23;;;1.60;;
1719;SDS011;857;52.872;9.692;2023-03-14T03:57:36;4.73;;;1.73;;
1719;SDS011;857;52.872;9.692;2023-03-14T04:00:04;4.97;;;1.93;;
1719;SDS011;857;52.872;9.692;2023-03-14T04:02:39;4.60;;;2.57;;
1719;SDS011;857;52.872;9.692;2023-03-14T04:05:10;3.23;;;1.80;;
1719;SDS011;857;52.872;9.692;2023-03-14T04:07:45;2.40;;;1.43;;
1719;SDS011;857;52.872;9.692;2023-03-14T04:10:17;2.07;;;1.40;;
1719;SDS011;857;52.872;9.692;2023-03-14T04:13:03;3.70;;;1.80;;
1719;SDS011;857;52.872;9.692;2023-03-14T04:15:33;2.80;;;1.70;;
1719;SDS011;857;52.872;9.692;2023-03-14T04:18:07;3.30;;;1.50;;
1719;SDS011;857;52.872;9.692;2023-03-14T04:20:35;4.37;;;1.50;;
1719;SDS011;857;52.872;9.692;2023-03-14T04:23:05;4.20;;;1.37;;
1719;SDS011;857;52.872;9.692;2023-03-14T04:25:33;3.00;;;1.20;;
1719;SDS011;857;52.872;9.692;2023-03-14T04:28:04;1.60;;;0.80;;
1719;SDS011;857;52.872;9.692;2023-03-14T04:30:32;3.00;;;1.27;;
1719;SDS011;857;52.872;9.692;2023-03-14T04:33:08;1.10;;;1.00;;
1719;SDS011;857;52.872;9.692;2023-03-14T04:35:43;2.30;;;1.20;;
1719;SDS011;857;52.872;9.692;2023-03-14T04:38:14;1.90;;;1.10;;
1719;SDS011;857;52.872;9.692;2023-03-14T04:40:44;4.90;;;1.40;;
1719;SDS011;857;52.872;9.692;2023-03-14T04:43:12;2.27;;;1.00;;
1719;SDS011;857;52.872;9.692;2023-03-14T04:45:47;3.67;;;1.20;;
1719;SDS011;857;52.872;9.692;2023-03-14T04:48:15;2.50;;;1.10;;
1719;SDS011;857;52.872;9.692;2023-03-14T04:50:43;2.83;;;1.03;;
1719;SDS011;857;52.872;9.692;2023-03-14T04:53:12;2.27;;;1.10;;
1719;SDS011;857;52.872;9.692;2023-03-14T04:55:46;2.90;;;1.13;;
1719;SDS011;857;52.872;9.692;2023-03-14T04:58:14;2.73;;;1.30;;
1719;SDS011;857;52.872;9.692;2023-03-14T05:00:43;1.70;;;0.93;;
1719;SDS011;857;52.872;9.692;2023-03-14T05:03:28;2.00;;;0.97;;
1719;SDS011;857;52.872;9.692;2023-03-14T05:06:14;2.40;;;1.47;;
1719;SDS011;857;52.872;9.692;2023-03-14T05:09:03;1.87;;;1.60;;
1719;SDS011;857;52.872;9.692;2023-03-14T05:11:55;2.30;;;1.67;;
1719;SDS011;857;52.872;9.692;2023-03-14T05:14:35;3.07;;;1.27;;
1719;SDS011;857;52.872;9.692;2023-03-14T05:17:27;2.53;;;1.40;;
1719;SDS011;857;52.872;9.692;2023-03-14T05:20:24;3.70;;;1.20;;
1719;SDS011;857;52.872;9.692;2023-03-14T05:23:18;2.00;;;1.03;;
1719;SDS011;857;52.872;9.692;2023-03-14T05:26:04;4.67;;;1.30;;
1719;SDS011;857;52.872;9.692;2023-03-14T05:28:33;1.83;;;1.30;;
1719;SDS011;857;52.872;9.692;2023-03-14T05:31:24;3.37;;;1.40;;
1719;SDS011;857;52.872;9.692;2023-03-14T05:34:01;2.20;;;1.57;;
1719;SDS011;857;52.872;9.692;2023-03-14T05:36:52;4.07;;;1.60;;
1719;SDS011;857;52.872;9.692;2023-03-14T05:39:35;3.20;;;1.40;;
1719;SDS011;857;52.872;9.692;2023-03-14T05:42:21;4.13;;;1.37;;
1719;SDS011;857;52.872;9.692;2023-03-14T05:45:08;2.53;;;1.40;;
1719;SDS011;857;52.872;9.692;2023-03-14T05:48:05;2.23;;;1.40;;
1719;SDS011;857;52.872;9.692;2023-03-14T05:51:02;2.20;;;1.00;;
1719;SDS011;857;52.872;9.692;2023-03-14T05:53:50;2.30;;;1.10;;
1719;SDS011;857;52.872;9.692;2023-03-14T05:56:43;3.00;;;1.50;;
1719;SDS011;857;52.872;9.692;2023-03-14T05:59:19;2.93;;;1.20;;
1719;SDS011;857;52.872;9.692;2023-03-14T06:02:07;3.60;;;1.47;;
1719;SDS011;857;52.872;9.692;2023-03-14T06:04:46;2.90;;;1.40;;
1719;SDS011;857;52.872;9.692;2023-03-14T06:07:14;3.80;;;1.60;;
1719;SDS011;857;52.872;9.692;2023-03-14T06:09:43;2.80;;;1.27;;
1719;SDS011;857;52.872;9.692;2023-03-14T06:12:11;3.60;;;1.33;;
1719;SDS011;857;52.872;9.692;2023-03-14T06:14:42;5.33;;;1.77;;
1719;SDS011;857;52.872;9.692;2023-03-14T06:17:11;3.63;;;1.20;;
1719;SDS011;857;52.872;9.692;2023-03-14T06:19:58;3.83;;;1.40;;
1719;SDS011;857;52.872;9.692;2023-03-14T06:22:27;2.60;;;1.83;;
1719;SDS011;857;52.872;9.692;2023-03-14T06:24:55;7.50;;;2.10;;
1719;SDS011;857;52.872;9.692;2023-03-14T06:27:24;7.77;;;4.70;;
1719;SDS011;857;52.872;9.692;2023-03-14T06:29:54;21.73;;;13.63;;
1719;SDS011;857;52.872;9.692;2023-03-14T06:32:24;8.83;;;5.10;;
1719;SDS011;857;52.872;9.692;2023-03-14T06:34:56;10.07;;;5.90;;
1719;SDS011;857;52.872;9.692;2023-03-14T06:37:27;9.70;;;4.60;;
1719;SDS011;857;52.872;9.692;2023-03-14T06:39:55;6.50;;;5.03;;
1719;SDS011;857;52.872;9.692;2023-03-14T06:42:42;14.00;;;9.90;;
1719;SDS011;857;52.872;9.692;2023-03-14T06:45:11;7.10;;;4.80;;
1719;SDS011;857;52.872;9.692;2023-03-14T06:47:40;16.43;;;11.40;;
1719;SDS011;857;52.872;9.692;2023-03-14T06:50:09;4.53;;;3.07;;
1719;SDS011;857;52.872;9.692;2023-03-14T06:52:37;8.07;;;3.67;;
1719;SDS011;857;52.872;9.692;2023-03-14T06:55:07;9.90;;;7.00;;
1719;SDS011;857;52.872;9.692;2023-03-14T06:57:36;5.80;;;3.67;;
1719;SDS011;857;52.872;9.692;2023-03-14T07:00:04;9.40;;;6.63;;
1719;SDS011;857;52.872;9.692;2023-03-14T07:02:32;8.00;;;5.07;;
1719;SDS011;857;52.872;9.692;2023-03-14T07:05:02;5.67;;;3.20;;
1719;SDS011;857;52.872;9.692;2023-03-14T07:07:30;7.90;;;4.93;;
1719;SDS011;857;52.872;9.692;2023-03-14T07:09:58;9.63;;;6.60;;
1719;SDS011;857;52.872;9.692;2023-03-14T07:12:27;7.17;;;4.33;;
1719;SDS011;857;52.872;9.692;2023-03-14T07:14:55;6.83;;;4.20;;
1719;SDS011;857;52.872;9.692;2023-03-14T07:17:22;7.77;;;5.70;;
1719;SDS011;857;52.872;9.692;2023-03-14T07:19:50;4.33;;;3.00;;
1719;SDS011;857;52.872;9.692;2023-03-14T07:22:19;7.20;;;4.00;;
1719;SDS011;857;52.872;9.692;2023-03-14T07:24:47;6.90;;;4.00;;
1719;SDS011;857;52.872;9.692;2023-03-14T07:27:15;8.07;;;3.50;;
1719;SDS011;857;52.872;9.692;2023-03-14T07:29:42;12.10;;;7.40;;
1719;SDS011;857;52.872;9.692;2023-03-14T07:32:10;4.70;;;3.40;;
1719;SDS011;857;52.872;9.692;2023-03-14T07:34:40;4.37;;;2.83;;
1719;SDS011;857;52.872;9.692;2023-03-14T07:37:08;3.53;;;2.33;;
1719;SDS011;857;52.872;9.692;2023-03-14T07:39:37;4.23;;;3.00;;
1719;SDS011;857;52.872;9.692;2023-03-14T07:42:14;5.57;;;3.60;;
1719;SDS011;857;52.872;9.692;2023-03-14T07:44:58;8.87;;;4.30;;
1719;SDS011;857;52.872;9.692;2023-03-14T07:47:26;7.60;;;3.70;;
1719;SDS011;857;52.872;9.692;2023-03-14T07:49:53;4.03;;;2.97;;
1719;SDS011;857;52.872;9.692;2023-03-14T07:52:21;5.37;;;3.17;;
1719;SDS011;857;52.872;9.692;2023-03-14T07:54:51;5.00;;;3.07;;
1719;SDS011;857;52.872;9.692;2023-03-14T07:57:18;6.03;;;3.33;;
1719;SDS011;857;52.872;9.692;2023-03-14T07:59:46;6.63;;;3.63;;
1719;SDS011;857;52.872;9.692;2023-03-14T08:02:14;5.80;;;3.67;;
1719;SDS011;857;52.872;9.692;2023-03-14T08:04:41;4.93;;;2.77;;
1719;SDS011;857;52.872;9.692;2023-03-14T08:07:09;8.13;;;5.07;;
1719;SDS011;857;52.872;9.692;2023-03-14T08:09:37;4.03;;;2.80;;
1719;SDS011;857;52.872;9.692;2023-03-14T08:12:06;5.33;;;3.37;;
1719;SDS011;857;52.872;9.692;2023-03-14T08:14:34;3.23;;;2.50;;
1719;SDS011;857;52.872;9.692;2023-03-14T08:17:01;3.30;;;1.90;;
1719;SDS011;857;52.872;9.692;2023-03-14T08:19:30;16.40;;;6.60;;
1719;SDS011;857;52.872;9.692;2023-03-14T08:21:58;5.20;;;2.90;;
1719;SDS011;857;52.872;9.692;2023-03-14T08:24:35;3.53;;;2.07;;
1719;SDS011;857;52.872;9.692;2023-03-14T08:27:03;8.53;;;3.10;;
1719;SDS011;857;52.872;9.692;2023-03-14T08:29:32;2.60;;;1.60;;
1719;SDS011;857;52.872;9.692;2023-03-14T08:31:59;10.83;;;5.50;;
1719;SDS011;857;52.872;9.692;2023-03-14T08:34:27;7.13;;;3.60;;
1719;SDS011;857;52.872;9.692;2023-03-14T08:36:55;7.50;;;3.37;;
1719;SDS011;857;52.872;9.692;2023-03-14T08:39:22;4.70;;;1.53;;
1719;SDS011;857;52.872;9.692;2023-03-14T08:41:50;3.07;;;1.80;;
1719;SDS011;857;52.872;9.692;2023-03-14T08:44:18;11.13;;;3.77;;
1719;SDS011;857;52.872;9.692;2023-03-14T08:46:47;5.50;;;3.07;;
1719;SDS011;857;52.872;9.692;2023-03-14T08:49:14;1.67;;;1.30;;
1719;SDS011;857;52.872;9.692;2023-03-14T08:51:42;3.83;;;1.47;;
1719;SDS011;857;52.872;9.692;2023-03-14T08:54:10;4.70;;;4.13;;
1719;SDS011;857;52.872;9.692;2023-03-14T08:56:37;1.97;;;1.50;;
1719;SDS011;857;52.872;9.692;2023-03-14T08:59:05;2.87;;;1.93;;
1719;SDS011;857;52.872;9.692;2023-03-14T09:01:33;6.20;;;3.00;;
1719;SDS011;857;52.872;9.692;2023-03-14T09:04:02;3.97;;;1.80;;
1719;SDS011;857;52.872;9.692;2023-03-14T09:06:30;1.37;;;0.80;;
1719;SDS011;857;52.872;9.692;2023-03-14T09:08:57;9.83;;;3.63;;
1719;SDS011;857;52.872;9.692;2023-03-14T09:11:25;1.93;;;1.30;;
1719;SDS011;857;52.872;9.692;2023-03-14T09:13:53;0.80;;;0.60;;
1719;SDS011;857;52.872;9.692;2023-03-14T09:16:20;3.30;;;1.97;;
1719;SDS011;857;52.872;9.692;2023-03-14T09:18:48;8.67;;;4.30;;
1719;SDS011;857;52.872;9.692;2023-03-14T09:21:20;2.40;;;1.10;;
1719;SDS011;857;52.872;9.692;2023-03-14T09:23:47;1.63;;;1.27;;
1719;SDS011;857;52.872;9.692;2023-03-14T09:26:15;1.17;;;0.90;;
1719;SDS011;857;52.872;9.692;2023-03-14T09:28:43;2.10;;;1.53;;
1719;SDS011;857;52.872;9.692;2023-03-14T09:31:11;2.63;;;1.50;;
1719;SDS011;857;52.872;9.692;2023-03-14T09:33:39;0.80;;;0.80;;
1719;SDS011;857;52.872;9.692;2023-03-14T09:36:07;1.67;;;1.57;;
1719;SDS011;857;52.872;9.692;2023-03-14T09:38:36;3.37;;;1.67;;
1719;SDS011;857;52.872;9.692;2023-03-14T09:41:10;3.00;;;1.47;;
1719;SDS011;857;52.872;9.692;2023-03-14T09:43:39;2.47;;;1.57;;
1719;SDS011;857;52.872;9.692;2023-03-14T09:46:07;1.50;;;1.40;;
1719;SDS011;857;52.872;9.692;2023-03-14T09:48:36;2.30;;;1.57;;
1719;SDS011;857;52.872;9.692;2023-03-14T09:51:05;4.03;;;1.53;;
1719;SDS011;857;52.872;9.692;2023-03-14T09:53:35;4.23;;;1.77;;
1719;SDS011;857;52.872;9.692;2023-03-14T09:56:07;2.07;;;1.73;;
1719;SDS011;857;52.872;9.692;2023-03-14T09:58:36;6.93;;;2.70;;
1719;SDS011;857;52.872;9.692;2023-03-14T10:01:04;2.93;;;1.60;;
1719;SDS011;857;52.872;9.692;2023-03-14T10:03:33;5.97;;;3.60;;
1719;SDS011;857;52.872;9.692;2023-03-14T10:06:01;2.63;;;2.43;;
1719;SDS011;857;52.872;9.692;2023-03-14T10:08:29;1.77;;;1.67;;
1719;SDS011;857;52.872;9.692;2023-03-14T10:10:57;3.00;;;2.73;;
1719;SDS011;857;52.872;9.692;2023-03-14T10:13:27;2.07;;;1.90;;
1719;SDS011;857;52.872;9.692;2023-03-14T10:15:55;2.10;;;1.90;;
1719;SDS011;857;52.872;9.692;2023-03-14T10:18:25;8.30;;;6.23;;
1719;SDS011;857;52.872;9.692;2023-03-14T10:21:02;2.73;;;2.20;;
1719;SDS011;857;52.872;9.692;2023-03-14T10:23:31;2.77;;;2.57;;
1719;SDS011;857;52.872;9.692;2023-03-14T10:26:00;4.33;;;3.57;;
1719;SDS011;857;52.872;9.692;2023-03-14T10:28:31;2.63;;;1.90;;
1719;SDS011;857;52.872;9.692;2023-03-14T10:31:00;2.20;;;2.00;;
1719;SDS011;857;52.872;9.692;2023-03-14T10:33:28;4.30;;;3.30;;
1719;SDS011;857;52.872;9.692;2023-03-14T10:35:57;3.60;;;2.73;;
1719;SDS011;857;52.872;9.692;2023-03-14T10:38:25;2.53;;;1.90;;
1719;SDS011;857;52.872;9.692;2023-03-14T10:40:53;1.97;;;1.07;;
1719;SDS011;857;52.872;9.692;2023-03-14T10:43:22;1.10;;;0.50;;
1719;SDS011;857;52.872;9.692;2023-03-14T10:45:54;0.83;;;0.50;;
1719;SDS011;857;52.872;9.692;2023-03-14T10:48:24;1.73;;;1.47;;
1719;SDS011;857;52.872;9.692;2023-03-14T10:50:57;1.30;;;1.20;;
1719;SDS011;857;52.872;9.692;2023-03-14T10:53:25;3.67;;;1.10;;
1719;SDS011;857;52.872;9.692;2023-03-14T10:55:53;2.47;;;1.53;;
1719;SDS011;857;52.872;9.692;2023-03-14T10:58:24;1.90;;;1.00;;
1719;SDS011;857;52.872;9.692;2023-03-14T11:01:02;1.40;;;0.87;;
1719;SDS011;857;52.872;9.692;2023-03-14T11:03:31;4.20;;;1.53;;
1719;SDS011;857;52.872;9.692;2023-03-14T11:06:03;0.80;;;0.80;;
1719;SDS011;857;52.872;9.692;2023-03-14T11:08:34;1.23;;;0.30;;
1719;SDS011;857;52.872;9.692;2023-03-14T11:11:07;0.40;;;0.20;;
1719;SDS011;857;52.872;9.692;2023-03-14T11:13:39;1.07;;;0.97;;
1719;SDS011;857;52.872;9.692;2023-03-14T11:16:13;1.10;;;0.90;;
1719;SDS011;857;52.872;9.692;2023-03-14T11:18:48;3.67;;;1.23;;
1719;SDS011;857;52.872;9.692;2023-03-14T11:21:18;0.90;;;0.60;;
1719;SDS011;857;52.872;9.692;2023-03-14T11:23:50;1.20;;;1.10;;
1719;SDS011;857;52.872;9.692;2023-03-14T11:26:25;2.30;;;0.97;;
1719;SDS011;857;52.872;9.692;2023-03-14T11:28:56;1.13;;;1.03;;
1719;SDS011;857;52.872;9.692;2023-03-14T11:31:27;2.00;;;0.80;;
1719;SDS011;857;52.872;9.692;2023-03-14T11:33:56;0.83;;;0.53;;
1719;SDS011;857;52.872;9.692;2023-03-14T11:36:27;1.07;;;0.67;;
1719;SDS011;857;52.872;9.692;2023-03-14T11:38:55;1.27;;;1.03;;
1719;SDS011;857;52.872;9.692;2023-03-14T11:41:25;1.67;;;0.70;;
1719;SDS011;857;52.872;9.692;2023-03-14T11:43:54;1.13;;;0.70;;
1719;SDS011;857;52.872;9.692;2023-03-14T11:46:23;0.67;;;0.50;;
1719;SDS011;857;52.872;9.692;2023-03-14T11:48:57;1.37;;;0.80;;
1719;SDS011;857;52.872;9.692;2023-03-14T11:51:28;1.20;;;1.00;;
1719;SDS011;857;52.872;9.692;2023-03-14T11:53:58;1.20;;;0.80;;
1719;SDS011;857;52.872;9.692;2023-03-14T11:56:29;1.30;;;0.50;;
1719;SDS011;857;52.872;9.692;2023-03-14T11:58:59;0.77;;;0.70;;
1719;SDS011;857;52.872;9.692;2023-03-14T12:01:32;1.17;;;0.33;;
1719;SDS011;857;52.872;9.692;2023-03-14T12:04:04;0.90;;;0.60;;
1719;SDS011;857;52.872;9.692;2023-03-14T12:06:34;1.30;;;0.73;;
1719;SDS011;857;52.872;9.692;2023-03-14T12:09:04;1.97;;;0.73;;
1719;SDS011;857;52.872;9.692;2023-03-14T12:11:33;3.40;;;1.17;;
1719;SDS011;857;52.872;9.692;2023-03-14T12:14:03;1.57;;;0.93;;
1719;SDS011;857;52.872;9.692;2023-03-14T12:16:43;1.30;;;0.90;;
1719;SDS011;857;52.872;9.692;2023-03-14T12:22:07;4.40;;;0.60;;
1719;SDS011;857;52.872;9.692;2023-03-14T12:24:36;2.00;;;0.83;;
1719;SDS011;857;52.872;9.692;2023-03-14T12:27:05;1.90;;;0.70;;
1719;SDS011;857;52.872;9.692;2023-03-14T12:29:41;2.73;;;0.60;;
1719;SDS011;857;52.872;9.692;2023-03-14T12:32:24;0.80;;;0.63;;
1719;SDS011;857;52.872;9.692;2023-03-14T12:34:52;2.77;;;0.77;;
1719;SDS011;857;52.872;9.692;2023-03-14T12:37:24;1.90;;;0.70;;
1719;SDS011;857;52.872;9.692;2023-03-14T12:39:58;3.10;;;0.80;;
1719;SDS011;857;52.872;9.692;2023-03-14T12:42:37;2.47;;;1.00;;
1719;SDS011;857;52.872;9.692;2023-03-14T12:45:21;1.47;;;0.63;;
1719;SDS011;857;52.872;9.692;2023-03-14T12:47:53;4.27;;;0.97;;
1719;SDS011;857;52.872;9.692;2023-03-14T12:50:24;4.43;;;0.90;;
1719;SDS011;857;52.872;9.692;2023-03-14T12:53:07;2.53;;;1.10;;
1719;SDS011;857;52.872;9.692;2023-03-14T12:55:38;3.77;;;1.00;;
1719;SDS011;857;52.872;9.692;2023-03-14T12:58:10;4.03;;;1.20;;
1719;SDS011;857;52.872;9.692;2023-03-14T13:00:51;2.43;;;0.80;;
1719;SDS011;857;52.872;9.692;2023-03-14T13:03:22;2.20;;;0.90;;
1719;SDS011;857;52.872;9.692;2023-03-14T13:05:54;5.20;;;1.00;;
1719;SDS011;857;52.872;9.692;2023-03-14T13:08:35;6.90;;;1.60;;
1719;SDS011;857;52.872;9.692;2023-03-14T13:11:04;3.77;;;1.10;;
1719;SDS011;857;52.872;9.692;2023-03-14T13:13:34;8.20;;;1.20;;
1719;SDS011;857;52.872;9.692;2023-03-14T13:16:02;5.23;;;1.13;;
1719;SDS011;857;52.872;9.692;2023-03-14T13:18:32;2.70;;;0.87;;
1719;SDS011;857;52.872;9.692;2023-03-14T13:21:02;2.60;;;1.00;;
1719;SDS011;857;52.872;9.692;2023-03-14T13:23:31;0.87;;;0.40;;
1719;SDS011;857;52.872;9.692;2023-03-14T13:26:00;1.80;;;0.87;;
1719;SDS011;857;52.872;9.692;2023-03-14T13:28:29;4.43;;;1.00;;
1719;SDS011;857;52.872;9.692;2023-03-14T13:30:58;4.43;;;1.07;;
1719;SDS011;857;52.872;9.692;2023-03-14T13:33:25;4.03;;;1.03;;
1719;SDS011;857;52.872;9.692;2023-03-14T13:35:55;9.00;;;1.30;;
1719;SDS011;857;52.872;9.692;2023-03-14T13:38:23;2.27;;;1.10;;
1719;SDS011;857;52.872;9.692;2023-03-14T13:40:51;2.30;;;0.80;;
1719;SDS011;857;52.872;9.692;2023-03-14T13:43:27;4.40;;;1.00;;
1719;SDS011;857;52.872;9.692;2023-03-14T13:46:00;3.63;;;1.10;;
1719;SDS011;857;52.872;9.692;2023-03-14T13:48:28;6.17;;;1.50;;
1719;SDS011;857;52.872;9.692;2023-03-14T13:50:58;4.73;;;1.40;;
1719;SDS011;857;52.872;9.692;2023-03-14T13:53:26;2.00;;;0.90;;
1719;SDS011;857;52.872;9.692;2023-03-14T13:55:54;4.50;;;1.20;;
1719;SDS011;857;52.872;9.692;2023-03-14T13:58:23;6.90;;;1.87;;
1719;SDS011;857;52.872;9.692;2023-03-14T14:00:57;7.03;;;1.10;;
1719;SDS011;857;52.872;9.692;2023-03-14T14:03:25;10.13;;;2.40;;
1719;SDS011;857;52.872;9.692;2023-03-14T14:05:54;7.47;;;1.40;;
1719;SDS011;857;52.872;9.692;2023-03-14T14:08:23;3.50;;;1.23;;
1719;SDS011;857;52.872;9.692;2023-03-14T14:10:50;2.50;;;1.00;;
1719;SDS011;857;52.872;9.692;2023-03-14T14:13:21;6.97;;;1.50;;
1719;SDS011;857;52.872;9.692;2023-03-14T14:15:50;5.63;;;1.10;;
1719;SDS011;857;52.872;9.692;2023-03-14T14:18:21;3.70;;;1.10;;
1719;SDS011;857;52.872;9.692;2023-03-14T14:20:50;3.73;;;1.10;;
1719;SDS011;857;52.872;9.692;2023-03-14T14:23:19;2.93;;;1.33;;
1719;SDS011;857;52.872;9.692;2023-03-14T14:25:50;3.60;;;0.90;;
1719;SDS011;857;52.872;9.692;2023-03-14T14:28:23;3.20;;;1.20;;
1719;SDS011;857;52.872;9.692;2023-03-14T14:30:59;2.40;;;0.80;;
1719;SDS011;857;52.872;9.692;2023-03-14T14:33:28;6.00;;;1.40;;
1719;SDS011;857;52.872;9.692;2023-03-14T14:35:56;2.47;;;1.07;;
1719;SDS011;857;52.872;9.692;2023-03-14T14:38:24;3.77;;;1.10;;
1719;SDS011;857;52.872;9.692;2023-03-14T14:40:53;5.30;;;1.00;;
1719;SDS011;857;52.872;9.692;2023-03-14T14:43:22;5.47;;;1.30;;
1719;SDS011;857;52.872;9.692;2023-03-14T14:45:51;1.63;;;0.80;;
1719;SDS011;857;52.872;9.692;2023-03-14T14:48:21;3.77;;;0.90;;
1719;SDS011;857;52.872;9.692;2023-03-14T14:50:54;6.03;;;1.10;;
1719;SDS011;857;52.872;9.692;2023-03-14T14:53:23;2.23;;;1.00;;
1719;SDS011;857;52.872;9.692;2023-03-14T14:55:52;5.43;;;1.60;;
1719;SDS011;857;52.872;9.692;2023-03-14T14:58:22;5.23;;;1.57;;
1719;SDS011;857;52.872;9.692;2023-03-14T15:00:51;2.20;;;1.37;;
1719;SDS011;857;52.872;9.692;2023-03-14T15:03:19;14.53;;;2.57;;
1719;SDS011;857;52.872;9.692;2023-03-14T15:05:47;3.30;;;1.10;;
1719;SDS011;857;52.872;9.692;2023-03-14T15:08:16;4.10;;;0.87;;
1719;SDS011;857;52.872;9.692;2023-03-14T15:10:44;3.67;;;1.30;;
1719;SDS011;857;52.872;9.692;2023-03-14T15:13:11;6.37;;;1.47;;
1719;SDS011;857;52.872;9.692;2023-03-14T15:15:39;8.07;;;1.40;;
1719;SDS011;857;52.872;9.692;2023-03-14T15:18:10;8.83;;;1.50;;
1719;SDS011;857;52.872;9.692;2023-03-14T15:20:39;11.73;;;1.80;;
1719;SDS011;857;52.872;9.692;2023-03-14T15:23:20;2.07;;;0.90;;
1719;SDS011;857;52.872;9.692;2023-03-14T15:25:49;3.10;;;0.70;;
1719;SDS011;857;52.872;9.692;2023-03-14T15:28:17;5.60;;;1.20;;
1719;SDS011;857;52.872;9.692;2023-03-14T15:30:46;6.00;;;1.20;;
1719;SDS011;857;52.872;9.692;2023-03-14T15:33:14;4.90;;;1.00;;
1719;SDS011;857;52.872;9.692;2023-03-14T15:35:42;1.90;;;0.80;;
1719;SDS011;857;52.872;9.692;2023-03-14T15:38:10;2.13;;;0.67;;
1719;SDS011;857;52.872;9.692;2023-03-14T15:40:39;3.10;;;0.60;;
1719;SDS011;857;52.872;9.692;2023-03-14T15:43:08;2.17;;;0.80;;
1719;SDS011;857;52.872;9.692;2023-03-14T15:45:36;6.50;;;1.57;;
1719;SDS011;857;52.872;9.692;2023-03-14T15:48:04;4.30;;;1.00;;
1719;SDS011;857;52.872;9.692;2023-03-14T15:53:46;5.33;;;0.80;;
1719;SDS011;857;52.872;9.692;2023-03-14T15:56:14;1.20;;;0.70;;
1719;SDS011;857;52.872;9.692;2023-03-14T15:58:46;1.73;;;0.80;;
1719;SDS011;857;52.872;9.692;2023-03-14T16:01:14;2.17;;;0.77;;
1719;SDS011;857;52.872;9.692;2023-03-14T16:03:42;1.40;;;0.70;;
1719;SDS011;857;52.872;9.692;2023-03-14T16:06:10;1.20;;;0.50;;